createdAt,value
2018-05-01T00:00:11.156Z,11.82
2018-05-01T00:01:11.285Z,11.85
2018-05-01T00:02:11.421Z,11.85
2018-05-01T00:03:11.552Z,11.76
2018-05-01T00:04:11.692Z,11.88
2018-05-01T00:05:11.823Z,11.79
2018-05-01T00:06:11.999Z,11.80
2018-05-01T00:07:12.085Z,11.70
2018-05-01T00:08:12.231Z,11.67
2018-05-01T00:09:12.361Z,11.76
2018-05-01T00:10:12.496Z,11.79
2018-05-01T00:11:12.654Z,11.80
2018-05-01T00:12:12.778Z,11.70
2018-05-01T00:13:12.911Z,11.66
2018-05-01T00:14:13.073Z,11.56
2018-05-01T00:15:13.206Z,11.67
2018-05-01T00:16:13.345Z,11.70
2018-05-01T00:17:13.491Z,11.58
2018-05-01T00:18:13.628Z,11.56
2018-05-01T00:19:13.764Z,11.61
2018-05-01T00:20:13.893Z,11.56
2018-05-01T00:21:14.039Z,11.56
2018-05-01T00:22:14.179Z,11.62
2018-05-01T00:23:14.329Z,11.54
2018-05-01T00:24:14.461Z,11.52
2018-05-01T00:25:14.596Z,11.48
2018-05-01T00:26:14.728Z,11.55
2018-05-01T00:27:14.864Z,11.52
2018-05-01T00:28:14.995Z,11.40
2018-05-01T00:29:15.140Z,11.48
2018-05-01T00:30:15.276Z,11.36
2018-05-01T00:31:15.408Z,11.41
2018-05-01T00:32:15.556Z,11.37
2018-05-01T00:33:15.710Z,11.34
2018-05-01T00:34:15.851Z,11.37
2018-05-01T00:35:16.883Z,11.36
2018-05-01T00:36:16.061Z,11.41
2018-05-01T00:37:16.195Z,11.40
2018-05-01T00:38:16.324Z,11.41
2018-05-01T00:39:16.482Z,11.45
2018-05-01T00:40:16.608Z,11.40
2018-05-01T00:41:16.727Z,11.37
2018-05-01T00:42:16.867Z,11.40
2018-05-01T00:43:16.994Z,11.30
2018-05-01T00:44:17.136Z,11.30
2018-05-01T00:45:17.276Z,11.19
2018-05-01T00:46:17.406Z,11.31
2018-05-01T00:47:17.536Z,11.41
2018-05-01T00:48:17.684Z,11.34
2018-05-01T00:49:17.804Z,11.36
2018-05-01T00:50:17.937Z,11.46
2018-05-01T00:51:18.070Z,11.33
2018-05-01T00:52:18.234Z,11.43
2018-05-01T00:53:18.368Z,11.41
2018-05-01T00:54:18.503Z,11.37
2018-05-01T00:55:18.635Z,11.41
2018-05-01T00:56:18.772Z,11.40
2018-05-01T00:57:18.900Z,11.51
2018-05-01T00:58:19.037Z,11.37
2018-05-01T00:59:19.171Z,11.51
2018-05-01T01:00:19.306Z,11.38
2018-05-01T01:01:19.434Z,11.45
2018-05-01T01:02:19.565Z,11.38
2018-05-01T01:03:19.723Z,11.37
2018-05-01T01:04:19.852Z,11.30
2018-05-01T01:05:19.983Z,11.25
2018-05-01T01:06:20.119Z,11.22
2018-05-01T01:07:20.276Z,11.38
2018-05-01T01:08:20.413Z,11.37
2018-05-01T01:09:20.546Z,11.34
2018-05-01T01:10:20.690Z,11.33
2018-05-01T01:11:20.860Z,11.37
2018-05-01T01:12:20.993Z,11.36
2018-05-01T01:13:21.133Z,11.40
2018-05-01T01:14:21.271Z,11.25
2018-05-01T01:15:21.411Z,11.18
2018-05-01T01:16:21.598Z,11.23
2018-05-01T01:17:21.713Z,11.31
2018-05-01T01:18:21.848Z,11.30
2018-05-01T01:19:21.983Z,11.15
2018-05-01T01:20:22.138Z,11.16
2018-05-01T01:21:22.268Z,11.23
2018-05-01T01:22:22.399Z,11.30
2018-05-01T01:23:22.532Z,11.22
2018-05-01T01:24:22.697Z,11.27
2018-05-01T01:25:22.818Z,11.28
2018-05-01T01:26:22.951Z,11.15
2018-05-01T01:27:23.086Z,11.19
2018-05-01T01:28:23.232Z,11.12
2018-05-01T01:29:23.360Z,11.09
2018-05-01T01:30:23.491Z,11.04
2018-05-01T01:31:23.623Z,11.00
2018-05-01T01:32:23.767Z,11.04
2018-05-01T01:33:23.903Z,10.98
2018-05-01T01:34:24.035Z,10.86
2018-05-01T01:35:24.196Z,10.97
2018-05-01T01:36:24.338Z,10.90
2018-05-01T01:37:24.472Z,10.85
2018-05-01T01:38:24.609Z,10.93
2018-05-01T01:39:24.804Z,10.94
2018-05-01T01:40:24.889Z,10.97
2018-05-01T01:41:25.025Z,10.87
2018-05-01T01:42:25.147Z,10.87
2018-05-01T01:43:25.284Z,10.90
2018-05-01T01:44:25.447Z,10.79
2018-05-01T01:45:25.547Z,10.79
2018-05-01T01:46:25.690Z,10.64
2018-05-01T01:47:25.820Z,10.57
2018-05-01T01:48:25.956Z,10.46
2018-05-01T01:49:26.089Z,10.46
2018-05-01T01:50:26.885Z,10.49
2018-05-01T01:51:26.352Z,10.39
2018-05-01T01:52:26.483Z,10.41
2018-05-01T01:53:26.619Z,10.36
2018-05-01T01:54:26.747Z,10.31
2018-05-01T01:55:26.880Z,10.28
2018-05-01T01:56:27.014Z,10.21
2018-05-01T01:57:27.150Z,10.17
2018-05-01T01:58:27.286Z,10.14
2018-05-01T01:59:27.418Z,10.21
2018-05-01T02:00:27.554Z,10.16
2018-05-01T02:01:27.684Z,10.10
2018-05-01T02:02:27.830Z,10.09
2018-05-01T02:03:27.962Z,9.99
2018-05-01T02:04:28.093Z,10.06
2018-05-01T02:05:28.214Z,9.94
2018-05-01T02:06:28.364Z,9.99
2018-05-01T02:07:28.504Z,9.88
2018-05-01T02:08:28.638Z,9.88
2018-05-01T02:09:28.786Z,9.88
2018-05-01T02:10:28.891Z,9.87
2018-05-01T02:11:29.019Z,9.75
2018-05-01T02:12:29.151Z,9.80
2018-05-01T02:13:29.279Z,9.72
2018-05-01T02:14:29.413Z,9.63
2018-05-01T02:15:29.584Z,9.62
2018-05-01T02:16:29.715Z,9.50
2018-05-01T02:17:29.844Z,9.41
2018-05-01T02:18:29.975Z,9.52
2018-05-01T02:19:30.146Z,9.52
2018-05-01T02:20:30.240Z,9.47
2018-05-01T02:21:30.371Z,9.48
2018-05-01T02:22:30.537Z,9.45
2018-05-01T02:23:30.663Z,9.42
2018-05-01T02:24:30.865Z,9.48
2018-05-01T02:25:30.930Z,9.42
2018-05-01T02:26:31.066Z,9.42
2018-05-01T02:27:31.191Z,9.36
2018-05-01T02:28:31.326Z,9.29
2018-05-01T02:29:31.464Z,9.34
2018-05-01T02:30:31.607Z,9.41
2018-05-01T02:31:32.391Z,9.45
2018-05-01T02:32:31.859Z,9.45
2018-05-01T02:33:32.051Z,9.40
2018-05-01T02:34:32.121Z,9.23
2018-05-01T02:35:32.259Z,9.26
2018-05-01T02:36:32.388Z,9.34
2018-05-01T02:37:32.541Z,9.33
2018-05-01T02:38:32.670Z,9.32
2018-05-01T02:39:32.803Z,9.36
2018-05-01T02:40:32.950Z,9.32
2018-05-01T02:41:33.072Z,9.24
2018-05-01T02:42:33.205Z,9.22
2018-05-01T02:43:33.338Z,9.18
2018-05-01T02:44:33.492Z,9.23
2018-05-01T02:45:33.636Z,9.29
2018-05-01T02:46:33.751Z,9.22
2018-05-01T02:47:33.875Z,9.32
2018-05-01T02:48:34.027Z,9.37
2018-05-01T02:49:34.138Z,9.40
2018-05-01T02:50:34.271Z,9.33
2018-05-01T02:51:34.403Z,9.16
2018-05-01T02:52:34.563Z,9.15
2018-05-01T02:53:34.688Z,9.15
2018-05-01T02:54:34.830Z,9.24
2018-05-01T02:55:34.959Z,9.16
2018-05-01T02:56:35.095Z,9.14
2018-05-01T02:57:35.229Z,9.03
2018-05-01T02:58:35.356Z,9.15
2018-05-01T02:59:35.490Z,9.08
2018-05-01T03:00:35.625Z,9.14
2018-05-01T03:01:35.759Z,8.96
2018-05-01T03:02:35.894Z,8.99
2018-05-01T03:03:36.021Z,9.06
2018-05-01T03:04:36.157Z,8.89
2018-05-01T03:05:36.291Z,9.01
2018-05-01T03:06:36.418Z,8.88
2018-05-01T03:07:36.549Z,8.81
2018-05-01T03:08:36.679Z,8.98
2018-05-01T03:09:36.867Z,9.11
2018-05-01T03:10:36.947Z,9.03
2018-05-01T03:11:37.077Z,8.93
2018-05-01T03:12:37.212Z,9.04
2018-05-01T03:13:37.343Z,8.90
2018-05-01T03:14:37.478Z,8.90
2018-05-01T03:15:37.614Z,8.90
2018-05-01T03:16:37.748Z,8.96
2018-05-01T03:17:37.892Z,9.06
2018-05-01T03:18:38.044Z,9.16
2018-05-01T03:19:38.174Z,9.12
2018-05-01T03:20:38.313Z,9.12
2018-05-01T03:21:38.446Z,9.06
2018-05-01T03:22:38.577Z,9.03
2018-05-01T03:23:38.710Z,8.98
2018-05-01T03:24:38.839Z,9.23
2018-05-01T03:25:38.973Z,9.23
2018-05-01T03:26:39.108Z,9.09
2018-05-01T03:27:39.241Z,8.92
2018-05-01T03:28:39.365Z,8.80
2018-05-01T03:29:39.498Z,8.81
2018-05-01T03:30:39.634Z,8.96
2018-05-01T03:31:39.765Z,8.96
2018-05-01T03:32:39.898Z,9.03
2018-05-01T03:33:40.020Z,9.03
2018-05-01T03:34:40.159Z,9.06
2018-05-01T03:35:40.289Z,9.12
2018-05-01T03:36:40.421Z,8.96
2018-05-01T03:37:40.566Z,9.04
2018-05-01T03:38:40.690Z,9.06
2018-05-01T03:39:40.826Z,9.04
2018-05-01T03:40:40.953Z,9.12
2018-05-01T03:41:41.125Z,9.14
2018-05-01T03:42:41.252Z,9.19
2018-05-01T03:43:41.396Z,9.14
2018-05-01T03:44:41.531Z,9.04
2018-05-01T03:45:41.692Z,9.12
2018-05-01T03:46:41.846Z,9.14
2018-05-01T03:47:41.976Z,8.98
2018-05-01T03:48:42.112Z,8.89
2018-05-01T03:49:42.278Z,8.95
2018-05-01T03:50:42.402Z,9.06
2018-05-01T03:51:42.536Z,9.11
2018-05-01T03:52:42.667Z,8.95
2018-05-01T03:53:42.812Z,8.92
2018-05-01T03:54:42.934Z,9.06
2018-05-01T03:55:43.065Z,8.98
2018-05-01T03:56:43.196Z,8.96
2018-05-01T03:57:43.343Z,9.08
2018-05-01T03:58:43.468Z,9.01
2018-05-01T03:59:43.605Z,9.11
2018-05-01T04:00:43.737Z,9.03
2018-05-01T04:01:43.872Z,8.99
2018-05-01T04:02:44.013Z,9.11
2018-05-01T04:03:44.144Z,8.92
2018-05-01T04:04:44.279Z,9.09
2018-05-01T04:05:44.452Z,9.08
2018-05-01T04:06:44.560Z,9.08
2018-05-01T04:07:44.717Z,8.98
2018-05-01T04:08:44.849Z,9.09
2018-05-01T04:09:44.979Z,9.06
2018-05-01T04:10:45.111Z,8.99
2018-05-01T04:11:45.246Z,8.88
2018-05-01T04:12:45.420Z,8.98
2018-05-01T04:13:45.531Z,8.88
2018-05-01T04:14:45.656Z,9.06
2018-05-01T04:15:45.800Z,9.09
2018-05-01T04:16:45.945Z,9.09
2018-05-01T04:17:46.060Z,9.04
2018-05-01T04:18:46.210Z,9.01
2018-05-01T04:19:46.350Z,9.09
2018-05-01T04:20:46.477Z,9.08
2018-05-01T04:21:46.604Z,9.01
2018-05-01T04:22:46.749Z,8.95
2018-05-01T04:23:46.882Z,9.03
2018-05-01T04:24:47.015Z,8.93
2018-05-01T04:25:47.151Z,8.96
2018-05-01T04:26:47.267Z,8.96
2018-05-01T04:27:47.398Z,8.95
2018-05-01T04:28:47.529Z,8.96
2018-05-01T04:29:47.660Z,8.98
2018-05-01T04:30:47.804Z,8.95
2018-05-01T04:31:47.931Z,8.81
2018-05-01T04:32:48.064Z,8.86
2018-05-01T04:33:48.195Z,8.80
2018-05-01T04:34:48.331Z,8.92
2018-05-01T04:35:48.461Z,8.88
2018-05-01T04:36:48.592Z,8.90
2018-05-01T04:37:48.726Z,8.88
2018-05-01T04:38:48.857Z,8.96
2018-05-01T04:39:48.976Z,9.14
2018-05-01T04:40:49.135Z,9.06
2018-05-01T04:41:49.269Z,9.15
2018-05-01T04:42:49.395Z,9.08
2018-05-01T04:43:49.526Z,9.01
2018-05-01T04:44:49.662Z,8.99
2018-05-01T04:45:49.796Z,9.04
2018-05-01T04:46:49.925Z,9.03
2018-05-01T04:47:50.061Z,8.90
2018-05-01T04:48:50.189Z,8.96
2018-05-01T04:49:50.323Z,9.04
2018-05-01T04:50:50.460Z,8.98
2018-05-01T04:51:50.609Z,8.99
2018-05-01T04:52:50.717Z,8.96
2018-05-01T04:53:50.845Z,9.09
2018-05-01T04:54:50.979Z,9.09
2018-05-01T04:55:51.107Z,9.06
2018-05-01T04:56:51.234Z,8.99
2018-05-01T04:57:51.451Z,9.01
2018-05-01T04:58:51.512Z,8.99
2018-05-01T04:59:51.646Z,9.03
2018-05-01T05:00:51.779Z,8.98
2018-05-01T05:01:51.968Z,9.08
2018-05-01T05:02:52.096Z,9.14
2018-05-01T05:03:52.231Z,9.12
2018-05-01T05:04:52.367Z,9.14
2018-05-01T05:05:52.524Z,9.22
2018-05-01T05:06:52.663Z,9.27
2018-05-01T05:07:52.792Z,9.19
2018-05-01T05:08:52.924Z,9.19
2018-05-01T05:09:53.053Z,9.19
2018-05-01T05:10:53.179Z,9.34
2018-05-01T05:11:53.315Z,9.27
2018-05-01T05:12:53.445Z,9.22
2018-05-01T05:13:53.576Z,9.33
2018-05-01T05:14:53.708Z,9.26
2018-05-01T05:15:53.847Z,9.36
2018-05-01T05:16:53.985Z,9.22
2018-05-01T05:17:54.110Z,9.16
2018-05-01T05:18:54.245Z,9.29
2018-05-01T05:19:54.380Z,9.32
2018-05-01T05:20:54.514Z,9.32
2018-05-01T05:21:54.665Z,9.37
2018-05-01T05:22:54.789Z,9.18
2018-05-01T05:23:54.924Z,9.18
2018-05-01T05:24:55.069Z,9.30
2018-05-01T05:25:55.220Z,9.23
2018-05-01T05:26:55.355Z,9.24
2018-05-01T05:27:55.489Z,9.22
2018-05-01T05:28:55.669Z,9.24
2018-05-01T05:29:55.763Z,9.23
2018-05-01T05:30:55.915Z,9.41
2018-05-01T05:31:56.046Z,9.40
2018-05-01T05:32:56.184Z,9.30
2018-05-01T05:33:56.385Z,9.18
2018-05-01T05:34:56.392Z,9.14
2018-05-01T05:35:56.544Z,9.12
2018-05-01T05:36:56.674Z,9.19
2018-05-01T05:37:56.805Z,9.12
2018-05-01T05:38:56.943Z,9.14
2018-05-01T05:39:57.069Z,9.18
2018-05-01T05:40:57.212Z,9.16
2018-05-01T05:41:57.366Z,9.16
2018-05-01T05:42:57.493Z,9.30
2018-05-01T05:43:57.633Z,9.19
2018-05-01T05:44:57.764Z,9.18
2018-05-01T05:45:57.892Z,9.26
2018-05-01T05:46:58.023Z,9.24
2018-05-01T05:47:58.195Z,9.22
2018-05-01T05:48:58.456Z,9.27
2018-05-01T05:49:58.452Z,9.15
2018-05-01T05:50:58.596Z,9.16
2018-05-01T05:51:58.746Z,9.16
2018-05-01T05:52:58.868Z,9.22
2018-05-01T05:53:59.006Z,9.22
2018-05-01T05:54:59.139Z,9.22
2018-05-01T05:55:59.302Z,9.23
2018-05-01T05:56:59.439Z,9.16
2018-05-01T05:57:59.565Z,9.19
2018-05-01T05:58:59.695Z,9.22
2018-05-01T05:59:59.843Z,9.15
2018-05-01T06:00:59.979Z,9.15
2018-05-01T06:02:00.104Z,9.22
2018-05-01T06:03:00.255Z,9.18
2018-05-01T06:04:00.364Z,9.19
2018-05-01T06:05:00.500Z,9.22
2018-05-01T06:06:00.640Z,9.18
2018-05-01T06:07:00.813Z,9.09
2018-05-01T06:08:00.942Z,9.06
2018-05-01T06:09:01.078Z,9.06
2018-05-01T06:10:01.203Z,9.12
2018-05-01T06:11:01.343Z,9.22
2018-05-01T06:12:01.522Z,9.22
2018-05-01T06:13:01.615Z,9.14
2018-05-01T06:14:01.741Z,9.22
2018-05-01T06:15:01.871Z,9.26
2018-05-01T06:16:02.012Z,9.23
2018-05-01T06:17:02.147Z,9.27
2018-05-01T06:18:02.329Z,9.19
2018-05-01T06:19:02.413Z,9.32
2018-05-01T06:20:02.545Z,9.19
2018-05-01T06:21:02.677Z,9.19
2018-05-01T06:22:02.903Z,9.24
2018-05-01T06:23:02.938Z,9.26
2018-05-01T06:24:03.070Z,9.22
2018-05-01T06:25:03.207Z,9.22
2018-05-01T06:26:03.336Z,9.29
2018-05-01T06:27:03.466Z,9.19
2018-05-01T06:28:03.600Z,9.23
2018-05-01T06:29:03.739Z,9.18
2018-05-01T06:30:03.879Z,9.22
2018-05-01T06:31:04.118Z,9.15
2018-05-01T06:32:05.042Z,9.24
2018-05-01T06:33:04.304Z,9.19
2018-05-01T06:34:04.440Z,9.18
2018-05-01T06:35:04.566Z,9.18
2018-05-01T06:36:04.699Z,9.26
2018-05-01T06:37:04.831Z,9.19
2018-05-01T06:38:04.961Z,9.18
2018-05-01T06:39:05.095Z,9.08
2018-05-01T06:40:05.227Z,9.18
2018-05-01T06:41:05.360Z,9.27
2018-05-01T06:42:05.502Z,9.24
2018-05-01T06:43:05.634Z,9.32
2018-05-01T06:44:05.769Z,9.29
2018-05-01T06:45:05.904Z,9.26
2018-05-01T06:46:06.038Z,9.24
2018-05-01T06:47:06.166Z,9.24
2018-05-01T06:48:06.298Z,9.18
2018-05-01T06:49:06.447Z,9.22
2018-05-01T06:50:06.576Z,9.22
2018-05-01T06:51:06.703Z,9.22
2018-05-01T06:52:06.834Z,9.26
2018-05-01T06:53:06.968Z,9.26
2018-05-01T06:54:07.104Z,9.36
2018-05-01T06:55:07.232Z,9.24
2018-05-01T06:56:07.350Z,9.22
2018-05-01T06:57:07.482Z,9.22
2018-05-01T06:58:07.647Z,9.22
2018-05-01T06:59:07.765Z,9.37
2018-05-01T07:00:07.895Z,9.36
2018-05-01T07:01:08.047Z,9.40
2018-05-01T07:02:08.183Z,9.45
2018-05-01T07:03:08.307Z,9.47
2018-05-01T07:04:08.442Z,9.44
2018-05-01T07:05:08.597Z,9.50
2018-05-01T07:06:08.731Z,9.52
2018-05-01T07:07:08.869Z,9.62
2018-05-01T07:08:08.994Z,9.65
2018-05-01T07:09:09.137Z,9.75
2018-05-01T07:10:09.321Z,9.70
2018-05-01T07:11:09.404Z,9.62
2018-05-01T07:12:09.553Z,9.50
2018-05-01T07:13:09.680Z,9.48
2018-05-01T07:14:09.814Z,9.57
2018-05-01T07:15:09.946Z,9.65
2018-05-01T07:16:10.173Z,9.52
2018-05-01T07:17:10.243Z,9.48
2018-05-01T07:18:10.384Z,9.52
2018-05-01T07:19:10.521Z,9.55
2018-05-01T07:20:10.669Z,9.55
2018-05-01T07:21:10.860Z,9.55
2018-05-01T07:22:10.933Z,9.42
2018-05-01T07:23:11.061Z,9.40
2018-05-01T07:24:11.219Z,9.50
2018-05-01T07:25:11.344Z,9.51
2018-05-01T07:26:11.474Z,9.62
2018-05-01T07:27:11.654Z,9.66
2018-05-01T07:28:11.676Z,9.75
2018-05-01T07:29:11.837Z,9.72
2018-05-01T07:30:11.956Z,9.80
2018-05-01T07:31:12.077Z,9.60
2018-05-01T07:32:12.224Z,9.51
2018-05-01T07:33:12.373Z,9.55
2018-05-01T07:34:12.520Z,9.54
2018-05-01T07:35:12.650Z,9.45
2018-05-01T07:36:12.793Z,9.47
2018-05-01T07:37:12.932Z,9.41
2018-05-01T07:38:13.075Z,9.40
2018-05-01T07:39:13.212Z,9.42
2018-05-01T07:40:13.341Z,9.40
2018-05-01T07:41:13.478Z,9.41
2018-05-01T07:42:13.614Z,9.51
2018-05-01T07:43:13.743Z,9.57
2018-05-01T07:44:13.876Z,9.54
2018-05-01T07:45:14.007Z,9.41
2018-05-01T07:46:14.153Z,9.51
2018-05-01T07:47:14.275Z,9.50
2018-05-01T07:48:15.044Z,9.37
2018-05-01T07:49:14.576Z,9.50
2018-05-01T07:50:14.706Z,9.48
2018-05-01T07:51:14.841Z,9.54
2018-05-01T07:52:14.968Z,9.42
2018-05-01T07:53:15.104Z,9.40
2018-05-01T07:54:15.242Z,9.41
2018-05-01T07:55:15.405Z,9.50
2018-05-01T07:56:15.544Z,9.59
2018-05-01T07:57:15.668Z,9.59
2018-05-01T07:58:15.803Z,9.52
2018-05-01T07:59:15.960Z,9.70
2018-05-01T08:00:16.092Z,9.72
2018-05-01T08:01:16.220Z,9.75
2018-05-01T08:02:16.355Z,9.81
2018-05-01T08:03:16.493Z,9.87
2018-05-01T08:04:16.624Z,9.83
2018-05-01T08:05:16.765Z,9.88
2018-05-01T08:06:16.907Z,9.99
2018-05-01T08:07:17.863Z,10.03
2018-05-01T08:08:17.205Z,10.10
2018-05-01T08:09:17.354Z,10.08
2018-05-01T08:10:17.484Z,10.06
2018-05-01T08:11:17.622Z,10.14
2018-05-01T08:12:17.775Z,10.02
2018-05-01T08:13:17.899Z,10.08
2018-05-01T08:14:18.037Z,9.99
2018-05-01T08:15:18.169Z,9.98
2018-05-01T08:16:18.308Z,9.91
2018-05-01T08:17:18.442Z,9.90
2018-05-01T08:18:18.583Z,9.91
2018-05-01T08:19:18.716Z,9.81
2018-05-01T08:20:18.872Z,9.72
2018-05-01T08:21:19.000Z,9.66
2018-05-01T08:22:19.865Z,9.59
2018-05-01T08:23:19.336Z,9.65
2018-05-01T08:24:19.516Z,9.67
2018-05-01T08:25:19.604Z,9.70
2018-05-01T08:26:19.730Z,9.70
2018-05-01T08:27:19.862Z,9.73
2018-05-01T08:28:20.022Z,9.78
2018-05-01T08:29:20.152Z,9.69
2018-05-01T08:30:20.294Z,9.75
2018-05-01T08:31:20.444Z,9.84
2018-05-01T08:32:20.579Z,9.85
2018-05-01T08:33:20.716Z,9.87
2018-05-01T08:34:20.860Z,9.94
2018-05-01T08:35:20.992Z,9.93
2018-05-01T08:36:21.128Z,10.01
2018-05-01T08:37:21.265Z,9.96
2018-05-01T08:38:21.393Z,9.93
2018-05-01T08:39:21.536Z,9.88
2018-05-01T08:40:21.666Z,9.73
2018-05-01T08:41:21.804Z,9.72
2018-05-01T08:42:21.936Z,9.73
2018-05-01T08:43:22.074Z,9.80
2018-05-01T08:44:22.204Z,9.72
2018-05-01T08:45:22.374Z,9.77
2018-05-01T08:46:22.485Z,9.78
2018-05-01T08:47:22.614Z,9.77
2018-05-01T08:48:22.756Z,9.75
2018-05-01T08:49:22.909Z,9.80
2018-05-01T08:50:23.049Z,9.84
2018-05-01T08:51:23.189Z,9.84
2018-05-01T08:52:23.329Z,9.98
2018-05-01T08:53:23.493Z,9.93
2018-05-01T08:54:23.622Z,9.88
2018-05-01T08:55:23.830Z,9.96
2018-05-01T08:56:23.893Z,9.83
2018-05-01T08:57:24.052Z,9.91
2018-05-01T08:58:24.179Z,9.93
2018-05-01T08:59:24.312Z,10.05
2018-05-01T09:00:24.443Z,10.06
2018-05-01T09:01:24.594Z,10.05
2018-05-01T09:02:24.729Z,9.98
2018-05-01T09:03:24.878Z,9.93
2018-05-01T09:04:25.013Z,9.93
2018-05-01T09:05:25.164Z,9.83
2018-05-01T09:06:25.295Z,9.88
2018-05-01T09:07:25.446Z,9.93
2018-05-01T09:08:25.579Z,9.81
2018-05-01T09:09:25.777Z,9.87
2018-05-01T09:10:25.901Z,9.91
2018-05-01T09:11:26.038Z,9.87
2018-05-01T09:12:26.229Z,9.85
2018-05-01T09:13:26.366Z,9.94
2018-05-01T09:14:26.496Z,10.08
2018-05-01T09:15:26.667Z,10.08
2018-05-01T09:16:26.776Z,9.91
2018-05-01T09:17:26.929Z,10.09
2018-05-01T09:18:27.083Z,9.98
2018-05-01T09:19:27.202Z,10.03
2018-05-01T09:20:27.329Z,10.14
2018-05-01T09:21:27.462Z,10.06
2018-05-01T09:22:27.600Z,10.16
2018-05-01T09:23:27.735Z,10.18
2018-05-01T09:24:27.911Z,10.17
2018-05-01T09:25:28.065Z,10.21
2018-05-01T09:26:28.175Z,10.16
2018-05-01T09:27:28.343Z,10.16
2018-05-01T09:28:28.475Z,10.24
2018-05-01T09:29:28.646Z,10.26
2018-05-01T09:30:28.788Z,10.17
2018-05-01T09:31:28.934Z,10.35
2018-05-01T09:32:29.070Z,10.45
2018-05-01T09:33:29.210Z,10.61
2018-05-01T09:34:29.343Z,10.55
2018-05-01T09:35:29.473Z,10.61
2018-05-01T09:36:29.609Z,10.70
2018-05-01T09:37:29.745Z,10.60
2018-05-01T09:38:29.878Z,10.67
2018-05-01T09:39:30.017Z,10.60
2018-05-01T09:40:30.148Z,10.54
2018-05-01T09:41:30.290Z,10.62
2018-05-01T09:42:30.429Z,10.57
2018-05-01T09:43:30.565Z,10.57
2018-05-01T09:44:30.700Z,10.64
2018-05-01T09:45:30.845Z,10.64
2018-05-01T09:46:30.986Z,10.61
2018-05-01T09:47:31.126Z,10.72
2018-05-01T09:48:31.267Z,10.72
2018-05-01T09:49:31.411Z,10.70
2018-05-01T09:50:31.549Z,10.70
2018-05-01T09:51:31.696Z,10.67
2018-05-01T09:52:31.814Z,10.68
2018-05-01T09:53:31.961Z,10.73
2018-05-01T09:54:32.095Z,10.67
2018-05-01T09:55:32.226Z,10.82
2018-05-01T09:56:32.382Z,10.83
2018-05-01T09:57:32.531Z,10.72
2018-05-01T09:58:32.666Z,10.65
2018-05-01T09:59:32.797Z,10.86
2018-05-01T10:00:32.943Z,10.78
2018-05-01T10:01:33.071Z,10.85
2018-05-01T10:02:33.205Z,10.73
2018-05-01T10:03:33.362Z,10.76
2018-05-01T10:04:33.498Z,10.76
2018-05-01T10:05:33.674Z,10.76
2018-05-01T10:06:33.813Z,10.79
2018-05-01T10:07:33.980Z,11.04
2018-05-01T10:08:34.128Z,11.09
2018-05-01T10:09:34.267Z,11.15
2018-05-01T10:10:34.386Z,11.13
2018-05-01T10:11:34.556Z,11.11
2018-05-01T10:12:34.687Z,11.16
2018-05-01T10:13:34.826Z,11.18
2018-05-01T10:14:35.004Z,11.22
2018-05-01T10:15:35.118Z,11.19
2018-05-01T10:16:35.252Z,11.31
2018-05-01T10:17:35.395Z,11.48
2018-05-01T10:18:35.545Z,11.56
2018-05-01T10:19:35.681Z,11.38
2018-05-01T10:20:35.829Z,11.46
2018-05-01T10:21:35.961Z,11.34
2018-05-01T10:22:36.133Z,11.36
2018-05-01T10:23:36.362Z,11.41
2018-05-01T10:24:36.373Z,11.56
2018-05-01T10:25:36.506Z,11.74
2018-05-01T10:26:36.672Z,11.79
2018-05-01T10:27:36.793Z,11.87
2018-05-01T10:28:36.974Z,12.10
2018-05-01T10:29:37.097Z,12.10
2018-05-01T10:30:37.227Z,12.00
2018-05-01T10:31:37.363Z,12.00
2018-05-01T10:32:37.508Z,12.11
2018-05-01T10:33:37.649Z,12.05
2018-05-01T10:34:37.779Z,12.03
2018-05-01T10:35:37.928Z,12.04
2018-05-01T10:36:38.053Z,12.07
2018-05-01T10:37:38.192Z,12.28
2018-05-01T10:38:38.432Z,12.46
2018-05-01T10:39:38.446Z,12.29
2018-05-01T10:40:38.747Z,12.17
2018-05-01T10:41:38.706Z,12.29
2018-05-01T10:42:38.848Z,12.21
2018-05-01T10:43:38.988Z,12.40
2018-05-01T10:44:39.117Z,12.36
2018-05-01T10:45:39.328Z,12.50
2018-05-01T10:46:39.387Z,12.54
2018-05-01T10:47:39.514Z,12.41
2018-05-01T10:48:39.663Z,12.35
2018-05-01T10:49:39.847Z,12.44
2018-05-01T10:50:39.982Z,12.38
2018-05-01T10:51:40.120Z,12.44
2018-05-01T10:52:40.291Z,12.46
2018-05-01T10:53:40.437Z,12.58
2018-05-01T10:54:40.591Z,12.65
2018-05-01T10:55:40.702Z,12.76
2018-05-01T10:56:40.833Z,12.88
2018-05-01T10:57:40.973Z,12.69
2018-05-01T10:58:41.117Z,12.90
2018-05-01T10:59:41.257Z,13.11
2018-05-01T11:00:41.436Z,13.26
2018-05-01T11:01:42.313Z,13.38
2018-05-01T11:02:41.688Z,13.42
2018-05-01T11:03:41.820Z,13.36
2018-05-01T11:04:42.892Z,13.16
2018-05-01T11:05:42.028Z,13.20
2018-05-01T11:06:42.171Z,13.24
2018-05-01T11:07:42.309Z,13.23
2018-05-01T11:08:42.440Z,13.23
2018-05-01T11:09:42.582Z,13.20
2018-05-01T11:10:42.721Z,13.32
2018-05-01T11:11:43.042Z,13.29
2018-05-01T11:12:42.951Z,13.35
2018-05-01T11:13:43.088Z,13.53
2018-05-01T11:14:43.271Z,13.42
2018-05-01T11:15:43.411Z,13.45
2018-05-01T11:16:43.568Z,13.39
2018-05-01T11:17:43.699Z,13.43
2018-05-01T11:18:43.831Z,13.57
2018-05-01T11:19:43.978Z,13.57
2018-05-01T11:20:44.163Z,13.55
2018-05-01T11:21:44.261Z,13.80
2018-05-01T11:22:44.395Z,13.79
2018-05-01T11:23:44.535Z,13.88
2018-05-01T11:24:44.721Z,13.98
2018-05-01T11:25:44.822Z,14.18
2018-05-01T11:26:44.958Z,14.27
2018-05-01T11:27:45.101Z,14.05
2018-05-01T11:28:45.236Z,14.27
2018-05-01T11:29:45.370Z,14.22
2018-05-01T11:30:45.515Z,13.98
2018-05-01T11:31:45.662Z,14.26
2018-05-01T11:32:45.805Z,14.46
2018-05-01T11:33:45.998Z,14.49
2018-05-01T11:34:46.016Z,14.37
2018-05-01T11:35:46.178Z,14.45
2018-05-01T11:36:46.361Z,14.52
2018-05-01T11:37:46.513Z,14.90
2018-05-01T11:38:46.654Z,14.78
2018-05-01T11:39:46.857Z,14.93
2018-05-01T11:40:46.947Z,15.07
2018-05-01T11:41:47.079Z,15.14
2018-05-01T11:42:47.336Z,15.04
2018-05-01T11:43:47.394Z,15.11
2018-05-01T11:44:47.531Z,14.92
2018-05-01T11:45:48.601Z,14.79
2018-05-01T11:46:47.829Z,14.71
2018-05-01T11:47:47.973Z,14.90
2018-05-01T11:48:48.315Z,14.89
2018-05-01T11:49:48.335Z,14.85
2018-05-01T11:50:48.465Z,14.67
2018-05-01T11:51:48.624Z,14.51
2018-05-01T11:52:48.989Z,14.67
2018-05-01T11:53:48.957Z,14.79
2018-05-01T11:54:49.013Z,14.74
2018-05-01T11:55:49.238Z,14.82
2018-05-01T11:56:49.317Z,14.77
2018-05-01T11:57:49.469Z,15.01
2018-05-01T11:58:49.608Z,15.05
2018-05-01T11:59:49.752Z,14.79
2018-05-01T12:00:49.888Z,14.52
2018-05-01T12:01:50.030Z,14.34
2018-05-01T12:02:50.170Z,14.33
2018-05-01T12:03:51.100Z,14.31
2018-05-01T12:04:50.478Z,14.55
2018-05-01T12:05:50.617Z,14.67
2018-05-01T12:06:50.752Z,14.90
2018-05-01T12:07:50.887Z,15.10
2018-05-01T12:08:51.031Z,15.22
2018-05-01T12:09:51.174Z,15.23
2018-05-01T12:10:51.313Z,15.33
2018-05-01T12:11:51.464Z,15.41
2018-05-01T12:12:51.613Z,15.32
2018-05-01T12:13:51.752Z,15.01
2018-05-01T12:14:51.887Z,14.93
2018-05-01T12:15:52.033Z,15.27
2018-05-01T12:16:52.172Z,15.38
2018-05-01T12:17:52.307Z,15.43
2018-05-01T12:18:52.457Z,15.50
2018-05-01T12:19:52.607Z,15.56
2018-05-01T12:20:52.736Z,15.76
2018-05-01T12:21:52.879Z,15.70
2018-05-01T12:22:53.010Z,15.62
2018-05-01T12:23:53.169Z,15.48
2018-05-01T12:24:53.300Z,15.51
2018-05-01T12:25:53.446Z,15.54
2018-05-01T12:26:53.581Z,15.65
2018-05-01T12:27:53.715Z,15.60
2018-05-01T12:28:53.847Z,15.60
2018-05-01T12:29:54.010Z,15.58
2018-05-01T12:30:54.144Z,15.65
2018-05-01T12:31:54.283Z,15.77
2018-05-01T12:32:54.421Z,15.73
2018-05-01T12:33:54.585Z,15.63
2018-05-01T12:34:54.720Z,15.54
2018-05-01T12:35:54.858Z,15.66
2018-05-01T12:36:55.104Z,15.76
2018-05-01T12:37:55.174Z,15.77
2018-05-01T12:38:55.312Z,15.62
2018-05-01T12:39:55.446Z,15.77
2018-05-01T12:40:55.618Z,15.59
2018-05-01T12:41:55.759Z,15.62
2018-05-01T12:42:55.899Z,15.51
2018-05-01T12:43:56.047Z,15.50
2018-05-01T12:44:56.203Z,15.47
2018-05-01T12:45:56.336Z,15.38
2018-05-01T12:46:56.469Z,15.43
2018-05-01T12:47:56.622Z,15.52
2018-05-01T12:48:56.769Z,15.65
2018-05-01T12:49:56.912Z,15.63
2018-05-01T12:50:57.044Z,15.51
2018-05-01T12:51:57.209Z,15.43
2018-05-01T12:52:57.341Z,15.23
2018-05-01T12:53:57.491Z,15.23
2018-05-01T12:54:57.623Z,15.25
2018-05-01T12:55:57.796Z,15.23
2018-05-01T12:56:57.931Z,15.14
2018-05-01T12:57:58.070Z,15.19
2018-05-01T12:58:58.238Z,15.33
2018-05-01T12:59:58.368Z,15.27
2018-05-01T13:00:58.526Z,15.01
2018-05-01T13:01:58.657Z,15.04
2018-05-01T13:02:58.794Z,14.99
2018-05-01T13:03:58.929Z,14.97
2018-05-01T13:04:59.070Z,15.12
2018-05-01T13:05:59.208Z,15.26
2018-05-01T13:06:59.361Z,15.23
2018-05-01T13:07:59.500Z,15.29